Time,TemperatureF,DewpointF,PressureIn,WindDirection,WindDirectionDegrees,WindSpeedMPH,WindSpeedGustMPH,Humidity,HourlyPrecipIn,Conditions,Clouds,dailyrainin,SolarRadiationWatts/m^2,SoftwareType,DateUTC
2013-01-28 00:00:00,17.0,-99.9,-100.00,SSW,204,2.0,7.0,-999,-99.99,,,-99.99,0.000000,,2013-01-28 07:00:00,
2013-01-28 00:52:00,17.0,-99.9,-100.00,SSW,204,2.0,7.0,-999,-99.99,,,-99.99,0.000000,,2013-01-28 07:52:00,
2013-01-28 01:00:00,15.0,-99.9,-100.00,NE,35,1.0,5.0,-999,-99.99,,,-99.99,0.000000,,2013-01-28 08:00:00,
2013-01-28 01:53:00,15.0,-99.9,-100.00,NE,35,1.0,5.0,-999,-99.99,,,-99.99,0.000000,,2013-01-28 08:53:00,
2013-01-28 02:00:00,12.0,-99.9,-100.00,NW,308,1.0,6.0,-999,-99.99,,,-99.99,0.000000,,2013-01-28 09:00:00,
2013-01-28 02:52:00,12.0,-99.9,-100.00,NW,308,1.0,6.0,-999,-99.99,,,-99.99,0.000000,,2013-01-28 09:52:00,
2013-01-28 03:00:00,9.0,-99.9,-100.00,NNW,343,1.0,3.0,-999,-99.99,,,-99.99,0.000000,,2013-01-28 10:00:00,
2013-01-28 03:52:00,9.0,-99.9,-100.00,NNW,343,1.0,3.0,-999,-99.99,,,-99.99,0.000000,,2013-01-28 10:52:00,
2013-01-28 04:00:00,12.0,-99.9,-100.00,SSE,163,1.0,2.0,-999,-99.99,,,-99.99,0.000000,,2013-01-28 11:00:00,
2013-01-28 04:53:00,12.0,-99.9,-100.00,SSE,163,1.0,2.0,-999,-99.99,,,-99.99,0.000000,,2013-01-28 11:53:00,
2013-01-28 05:00:00,12.0,-99.9,-100.00,North,359,0.0,3.0,-999,-99.99,,,-99.99,0.000000,,2013-01-28 12:00:00,
2013-01-28 05:53:00,12.0,-99.9,-100.00,North,359,0.0,3.0,-999,-99.99,,,-99.99,0.000000,,2013-01-28 12:53:00,
2013-01-28 06:00:00,13.0,-99.9,-100.00,NE,54,0.0,1.0,-999,-99.99,,,-99.99,0.000000,,2013-01-28 13:00:00,
2013-01-28 06:53:00,13.0,-99.9,-100.00,NE,54,0.0,1.0,-999,-99.99,,,-99.99,0.000000,,2013-01-28 13:53:00,
2013-01-28 07:00:00,15.0,-99.9,-100.00,West,277,0.0,3.0,-999,-99.99,,,-99.99,0.000000,,2013-01-28 14:00:00,
2013-01-28 07:53:00,15.0,-99.9,-100.00,West,277,0.0,3.0,-999,-99.99,,,-99.99,0.000000,,2013-01-28 14:53:00,
2013-01-28 08:00:00,15.0,-99.9,-100.00,WSW,243,1.0,2.0,-999,-99.99,,,-99.99,0.000000,,2013-01-28 15:00:00,
2013-01-28 08:54:00,15.0,-99.9,-100.00,WSW,243,1.0,2.0,-999,-99.99,,,-99.99,0.000000,,2013-01-28 15:54:00,
2013-01-28 09:00:00,17.0,-99.9,-100.00,West,281,0.0,0.0,-999,-99.99,,,-99.99,0.500000,,2013-01-28 16:00:00,
2013-01-28 09:53:00,17.0,-99.9,-100.00,West,281,0.0,0.0,-999,-99.99,,,-99.99,0.500000,,2013-01-28 16:53:00,
2013-01-28 10:00:00,20.0,-99.9,-100.00,NW,316,0.0,0.0,-999,-99.99,,,-99.99,1.500000,,2013-01-28 17:00:00,
2013-01-28 10:53:00,20.0,-99.9,-100.00,NW,316,0.0,0.0,-999,-99.99,,,-99.99,1.500000,,2013-01-28 17:53:00,
2013-01-28 11:00:00,22.0,-99.9,-100.00,NW,314,1.0,4.0,-999,-99.99,,,-99.99,2.400000,,2013-01-28 18:00:00,
2013-01-28 11:53:00,22.0,-99.9,-100.00,NW,314,1.0,4.0,-999,-99.99,,,-99.99,2.400000,,2013-01-28 18:53:00,
2013-01-28 12:00:00,25.0,-99.9,-100.00,WNW,297,2.0,4.0,-999,-99.99,,,-99.99,3.700000,,2013-01-28 19:00:00,
2013-01-28 12:53:00,25.0,-99.9,-100.00,WNW,297,2.0,4.0,-999,-99.99,,,-99.99,3.700000,,2013-01-28 19:53:00,
2013-01-28 14:00:00,29.0,-99.9,-100.00,NW,318,3.0,8.0,-999,-99.99,,,-99.99,3.600000,,2013-01-28 21:00:00,
2013-01-28 14:53:00,29.0,-99.9,-100.00,NW,318,3.0,8.0,-999,-99.99,,,-99.99,3.600000,,2013-01-28 21:53:00,
2013-01-28 15:00:00,30.0,-99.9,-100.00,SE,128,3.0,7.0,-999,-99.99,,,-99.99,2.700000,,2013-01-28 22:00:00,
2013-01-28 15:53:00,30.0,-99.9,-100.00,SE,128,3.0,7.0,-999,-99.99,,,-99.99,2.700000,,2013-01-28 22:53:00,
2013-01-28 16:00:00,27.0,-99.9,-100.00,South,179,6.0,12.0,-999,-99.99,,,-99.99,1.600000,,2013-01-28 23:00:00,
2013-01-28 16:53:00,27.0,-99.9,-100.00,South,179,6.0,12.0,-999,-99.99,,,-99.99,1.600000,,2013-01-28 23:53:00,
2013-01-28 17:00:00,27.0,-99.9,-100.00,South,169,3.0,8.0,-999,-99.99,,,-99.99,0.700000,,2013-01-29 00:00:00,
2013-01-28 17:52:00,27.0,-99.9,-100.00,South,169,3.0,8.0,-999,-99.99,,,-99.99,0.700000,,2013-01-29 00:52:00,
2013-01-28 18:00:00,25.0,-99.9,-100.00,SE,138,3.0,7.0,-999,-99.99,,,-99.99,0.100000,,2013-01-29 01:00:00,
2013-01-28 18:53:00,25.0,-99.9,-100.00,SE,138,3.0,7.0,-999,-99.99,,,-99.99,0.100000,,2013-01-29 01:53:00,
2013-01-28 19:00:00,25.0,-99.9,-100.00,SE,143,4.0,6.0,-999,-99.99,,,-99.99,0.000000,,2013-01-29 02:00:00,
2013-01-28 19:53:00,25.0,-99.9,-100.00,SE,143,4.0,6.0,-999,-99.99,,,-99.99,0.000000,,2013-01-29 02:53:00,
2013-01-28 20:00:00,25.0,-99.9,-100.00,SE,125,2.0,4.0,-999,-99.99,,,-99.99,0.000000,,2013-01-29 03:00:00,
2013-01-28 20:53:00,25.0,-99.9,-100.00,SE,125,2.0,4.0,-999,-99.99,,,-99.99,0.000000,,2013-01-29 03:53:00,
2013-01-28 21:00:00,25.0,-99.9,-100.00,ESE,114,2.0,4.0,-999,-99.99,,,-99.99,0.000000,,2013-01-29 04:00:00,
2013-01-28 21:52:00,25.0,-99.9,-100.00,ESE,114,2.0,4.0,-999,-99.99,,,-99.99,0.000000,,2013-01-29 04:52:00,
2013-01-28 22:00:00,25.0,-99.9,-100.00,ESE,122,2.0,5.0,-999,-99.99,,,-99.99,0.000000,,2013-01-29 05:00:00,
2013-01-28 22:52:00,25.0,-99.9,-100.00,ESE,122,2.0,5.0,-999,-99.99,,,-99.99,0.000000,,2013-01-29 05:52:00,
2013-01-28 23:00:00,25.0,-99.9,-100.00,ESE,112,2.0,5.0,-999,-99.99,,,-99.99,0.000000,,2013-01-29 06:00:00,
2013-01-28 23:52:00,25.0,-99.9,-100.00,ESE,112,2.0,5.0,-999,-99.99,,,-99.99,0.000000,,2013-01-29 06:52:00,